sensor_id;sensor_type;location;lat;lon;timestamp;P1;durP1;ratioP1;P2;durP2;ratioP2
19967;SDS011;10145;49.152;9.282;2022-07-29T04:00:29;9.07;;;7.78;;
19967;SDS011;10145;49.152;9.282;2022-07-29T04:02:56;11.40;;;7.47;;
19967;SDS011;10145;49.152;9.282;2022-07-29T04:05:22;8.40;;;7.60;;
19967;SDS011;10145;49.152;9.282;2022-07-29T04:07:48;10.23;;;8.23;;
19967;SDS011;10145;49.152;9.282;2022-07-29T04:10:13;11.65;;;7.70;;
19967;SDS011;10145;49.152;9.282;2022-07-29T04:12:42;10.13;;;7.43;;
19967;SDS011;10145;49.152;9.282;2022-07-29T04:15:08;9.80;;;8.10;;
19967;SDS011;10145;49.152;9.282;2022-07-29T04:17:34;9.13;;;7.50;;
19967;SDS011;10145;49.152;9.282;2022-07-29T04:19:59;9.50;;;8.20;;
19967;SDS011;10145;49.152;9.282;2022-07-29T04:22:25;10.48;;;8.27;;
19967;SDS011;10145;49.152;9.282;2022-07-29T04:24:50;10.63;;;8.27;;
19967;SDS011;10145;49.152;9.282;2022-07-29T04:27:16;10.90;;;8.75;;
19967;SDS011;10145;49.152;9.282;2022-07-29T04:29:42;11.32;;;7.88;;
19967;SDS011;10145;49.152;9.282;2022-07-29T04:32:07;10.35;;;8.38;;
19967;SDS011;10145;49.152;9.282;2022-07-29T04:34:33;12.52;;;8.23;;
19967;SDS011;10145;49.152;9.282;2022-07-29T04:36:58;12.82;;;8.50;;
19967;SDS011;10145;49.152;9.282;2022-07-29T04:39:24;10.70;;;8.55;;
19967;SDS011;10145;49.152;9.282;2022-07-29T04:41:50;8.85;;;7.85;;
19967;SDS011;10145;49.152;9.282;2022-07-29T04:44:15;10.95;;;8.45;;
19967;SDS011;10145;49.152;9.282;2022-07-29T04:46:41;9.75;;;7.95;;
19967;SDS011;10145;49.152;9.282;2022-07-29T04:49:07;8.43;;;7.60;;
19967;SDS011;10145;49.152;9.282;2022-07-29T04:51:32;10.82;;;7.45;;
19967;SDS011;10145;49.152;9.282;2022-07-29T04:53:58;8.48;;;7.68;;
19967;SDS011;10145;49.152;9.282;2022-07-29T04:56:24;9.82;;;8.30;;
19967;SDS011;10145;49.152;9.282;2022-07-29T04:58:49;9.10;;;7.32;;
19967;SDS011;10145;49.152;9.282;2022-07-29T05:01:15;10.02;;;7.30;;
19967;SDS011;10145;49.152;9.282;2022-07-29T05:03:41;10.68;;;7.78;;
19967;SDS011;10145;49.152;9.282;2022-07-29T05:06:06;11.40;;;8.02;;
19967;SDS011;10145;49.152;9.282;2022-07-29T05:08:32;9.30;;;7.50;;
19967;SDS011;10145;49.152;9.282;2022-07-29T05:10:57;11.43;;;7.55;;
19967;SDS011;10145;49.152;9.282;2022-07-29T05:13:23;9.60;;;6.70;;
19967;SDS011;10145;49.152;9.282;2022-07-29T05:15:49;10.52;;;7.25;;
19967;SDS011;10145;49.152;9.282;2022-07-29T05:18:14;10.27;;;7.28;;
19967;SDS011;10145;49.152;9.282;2022-07-29T05:20:40;7.63;;;6.93;;
19967;SDS011;10145;49.152;9.282;2022-07-29T05:23:05;9.65;;;6.70;;
19967;SDS011;10145;49.152;9.282;2022-07-29T05:25:31;10.77;;;6.72;;
19967;SDS011;10145;49.152;9.282;2022-07-29T05:27:57;9.38;;;6.68;;
19967;SDS011;10145;49.152;9.282;2022-07-29T05:30:23;12.90;;;7.15;;
19967;SDS011;10145;49.152;9.282;2022-07-29T05:32:48;13.48;;;7.07;;
19967;SDS011;10145;49.152;9.282;2022-07-29T05:35:14;9.15;;;6.57;;
19967;SDS011;10145;49.152;9.282;2022-07-29T05:37:40;9.38;;;6.40;;
19967;SDS011;10145;49.152;9.282;2022-07-29T05:40:06;7.45;;;5.93;;
19967;SDS011;10145;49.152;9.282;2022-07-29T05:42:33;11.63;;;6.35;;
19967;SDS011;10145;49.152;9.282;2022-07-29T05:44:59;8.27;;;5.90;;
19967;SDS011;10145;49.152;9.282;2022-07-29T05:47:24;10.98;;;5.65;;
19967;SDS011;10145;49.152;9.282;2022-07-29T05:49:50;9.85;;;5.93;;
19967;SDS011;10145;49.152;9.282;2022-07-29T05:52:16;10.68;;;6.20;;
19967;SDS011;10145;49.152;9.282;2022-07-29T05:54:42;9.10;;;5.60;;
19967;SDS011;10145;49.152;9.282;2022-07-29T05:57:08;9.57;;;6.07;;
19967;SDS011;10145;49.152;9.282;2022-07-29T05:59:39;7.40;;;5.82;;
19967;SDS011;10145;49.152;9.282;2022-07-29T06:02:05;10.02;;;5.65;;
19967;SDS011;10145;49.152;9.282;2022-07-29T06:04:31;8.05;;;5.72;;
19967;SDS011;10145;49.152;9.282;2022-07-29T06:06:57;8.93;;;5.68;;
19967;SDS011;10145;49.152;9.282;2022-07-29T06:09:22;6.70;;;5.97;;
19967;SDS011;10145;49.152;9.282;2022-07-29T06:11:48;9.27;;;5.93;;
19967;SDS011;10145;49.152;9.282;2022-07-29T06:14:14;7.28;;;5.13;;
19967;SDS011;10145;49.152;9.282;2022-07-29T06:16:39;8.95;;;5.63;;
19967;SDS011;10145;49.152;9.282;2022-07-29T06:19:05;7.63;;;6.32;;
19967;SDS011;10145;49.152;9.282;2022-07-29T06:21:30;7.90;;;5.70;;
19967;SDS011;10145;49.152;9.282;2022-07-29T06:23:56;6.93;;;5.72;;
19967;SDS011;10145;49.152;9.282;2022-07-29T06:26:21;9.45;;;5.63;;
19967;SDS011;10145;49.152;9.282;2022-07-29T06:28:47;7.60;;;5.88;;
19967;SDS011;10145;49.152;9.282;2022-07-29T06:31:13;7.30;;;5.80;;
19967;SDS011;10145;49.152;9.282;2022-07-29T06:33:39;8.38;;;6.05;;
19967;SDS011;10145;49.152;9.282;2022-07-29T06:36:05;9.95;;;5.78;;
19967;SDS011;10145;49.152;9.282;2022-07-29T06:38:30;6.28;;;5.63;;
19967;SDS011;10145;49.152;9.282;2022-07-29T06:40:57;7.30;;;5.15;;
19967;SDS011;10145;49.152;9.282;2022-07-29T06:43:42;9.30;;;5.55;;
19967;SDS011;10145;49.152;9.282;2022-07-29T06:46:10;6.00;;;5.40;;
19967;SDS011;10145;49.152;9.282;2022-07-29T06:48:37;7.32;;;5.53;;
19967;SDS011;10145;49.152;9.282;2022-07-29T06:51:04;7.00;;;4.93;;
19967;SDS011;10145;49.152;9.282;2022-07-29T06:53:31;8.88;;;5.57;;
19967;SDS011;10145;49.152;9.282;2022-07-29T06:55:57;6.60;;;4.72;;
19967;SDS011;10145;49.152;9.282;2022-07-29T06:58:24;6.30;;;5.00;;
19967;SDS011;10145;49.152;9.282;2022-07-29T07:00:50;6.80;;;4.80;;
19967;SDS011;10145;49.152;9.282;2022-07-29T07:03:16;7.25;;;4.38;;
19967;SDS011;10145;49.152;9.282;2022-07-29T07:05:43;5.68;;;4.25;;
19967;SDS011;10145;49.152;9.282;2022-07-29T07:08:10;6.15;;;3.95;;
19967;SDS011;10145;49.152;9.282;2022-07-29T07:10:36;4.85;;;3.88;;
19967;SDS011;10145;49.152;9.282;2022-07-29T07:13:02;4.57;;;3.75;;
19967;SDS011;10145;49.152;9.282;2022-07-29T07:15:28;4.47;;;3.90;;
19967;SDS011;10145;49.152;9.282;2022-07-29T07:17:54;5.10;;;3.60;;
19967;SDS011;10145;49.152;9.282;2022-07-29T07:20:19;5.32;;;3.95;;
19967;SDS011;10145;49.152;9.282;2022-07-29T07:22:45;4.15;;;3.35;;
19967;SDS011;10145;49.152;9.282;2022-07-29T07:25:11;4.18;;;3.78;;
19967;SDS011;10145;49.152;9.282;2022-07-29T07:27:37;6.05;;;3.63;;
19967;SDS011;10145;49.152;9.282;2022-07-29T07:30:03;4.07;;;3.25;;
19967;SDS011;10145;49.152;9.282;2022-07-29T07:32:31;4.43;;;3.50;;
19967;SDS011;10145;49.152;9.282;2022-07-29T07:34:59;4.55;;;3.38;;
19967;SDS011;10145;49.152;9.282;2022-07-29T07:37:25;3.58;;;3.28;;
19967;SDS011;10145;49.152;9.282;2022-07-29T07:39:51;4.70;;;3.33;;
19967;SDS011;10145;49.152;9.282;2022-07-29T07:42:20;3.72;;;2.90;;
19967;SDS011;10145;49.152;9.282;2022-07-29T07:44:47;4.53;;;3.10;;
19967;SDS011;10145;49.152;9.282;2022-07-29T07:47:13;4.70;;;3.40;;
19967;SDS011;10145;49.152;9.282;2022-07-29T07:49:40;4.20;;;3.20;;
19967;SDS011;10145;49.152;9.282;2022-07-29T07:52:06;3.65;;;3.35;;
19967;SDS011;10145;49.152;9.282;2022-07-29T07:54:31;5.53;;;3.35;;
19967;SDS011;10145;49.152;9.282;2022-07-29T07:56:57;3.60;;;3.30;;
19967;SDS011;10145;49.152;9.282;2022-07-29T07:59:22;4.07;;;3.22;;
19967;SDS011;10145;49.152;9.282;2022-07-29T08:01:49;4.32;;;3.30;;
19967;SDS011;10145;49.152;9.282;2022-07-29T08:04:15;4.70;;;3.40;;
19967;SDS011;10145;49.152;9.282;2022-07-29T08:06:40;4.05;;;3.42;;
19967;SDS011;10145;49.152;9.282;2022-07-29T08:09:06;5.85;;;3.58;;
19967;SDS011;10145;49.152;9.282;2022-07-29T08:11:32;5.30;;;4.57;;
19967;SDS011;10145;49.152;9.282;2022-07-29T08:13:58;5.97;;;3.92;;
19967;SDS011;10145;49.152;9.282;2022-07-29T08:16:23;6.28;;;3.80;;
19967;SDS011;10145;49.152;9.282;2022-07-29T08:18:50;4.68;;;3.65;;
19967;SDS011;10145;49.152;9.282;2022-07-29T08:21:16;4.38;;;3.97;;
19967;SDS011;10145;49.152;9.282;2022-07-29T08:23:45;3.90;;;3.50;;
19967;SDS011;10145;49.152;9.282;2022-07-29T08:26:14;3.80;;;3.40;;
19967;SDS011;10145;49.152;9.282;2022-07-29T08:28:41;5.78;;;3.85;;
19967;SDS011;10145;49.152;9.282;2022-07-29T08:31:10;4.28;;;3.83;;
19967;SDS011;10145;49.152;9.282;2022-07-29T08:33:37;5.13;;;4.20;;
19967;SDS011;10145;49.152;9.282;2022-07-29T08:36:03;5.15;;;3.50;;
19967;SDS011;10145;49.152;9.282;2022-07-29T08:38:30;3.95;;;3.47;;
19967;SDS011;10145;49.152;9.282;2022-07-29T08:40:57;4.47;;;3.95;;
19967;SDS011;10145;49.152;9.282;2022-07-29T08:43:24;6.00;;;3.75;;
19967;SDS011;10145;49.152;9.282;2022-07-29T08:45:51;5.45;;;3.90;;
19967;SDS011;10145;49.152;9.282;2022-07-29T08:48:18;5.05;;;4.15;;
19967;SDS011;10145;49.152;9.282;2022-07-29T08:50:46;5.63;;;3.72;;
19967;SDS011;10145;49.152;9.282;2022-07-29T08:53:16;4.80;;;4.07;;
19967;SDS011;10145;49.152;9.282;2022-07-29T08:55:43;5.63;;;4.05;;
19967;SDS011;10145;49.152;9.282;2022-07-29T08:58:10;4.53;;;4.13;;
19967;SDS011;10145;49.152;9.282;2022-07-29T09:00:36;6.40;;;3.67;;
19967;SDS011;10145;49.152;9.282;2022-07-29T09:03:05;5.85;;;3.72;;
19967;SDS011;10145;49.152;9.282;2022-07-29T09:05:33;5.15;;;3.78;;
19967;SDS011;10145;49.152;9.282;2022-07-29T09:07:59;4.70;;;3.83;;
19967;SDS011;10145;49.152;9.282;2022-07-29T09:10:25;6.22;;;3.65;;
19967;SDS011;10145;49.152;9.282;2022-07-29T09:12:51;9.80;;;4.25;;
19967;SDS011;10145;49.152;9.282;2022-07-29T09:15:17;8.05;;;4.00;;
19967;SDS011;10145;49.152;9.282;2022-07-29T09:20:10;5.53;;;4.40;;
19967;SDS011;10145;49.152;9.282;2022-07-29T09:22:41;4.40;;;4.00;;
19967;SDS011;10145;49.152;9.282;2022-07-29T09:25:07;7.10;;;4.25;;
19967;SDS011;10145;49.152;9.282;2022-07-29T09:27:32;7.22;;;4.20;;
19967;SDS011;10145;49.152;9.282;2022-07-29T09:30:03;6.60;;;4.07;;
19967;SDS011;10145;49.152;9.282;2022-07-29T09:32:29;5.05;;;4.28;;
19967;SDS011;10145;49.152;9.282;2022-07-29T09:35:14;7.18;;;4.13;;
19967;SDS011;10145;49.152;9.282;2022-07-29T09:37:48;4.57;;;3.75;;
19967;SDS011;10145;49.152;9.282;2022-07-29T09:40:19;6.50;;;4.22;;
19967;SDS011;10145;49.152;9.282;2022-07-29T09:42:46;5.22;;;4.22;;
19967;SDS011;10145;49.152;9.282;2022-07-29T09:45:12;6.25;;;4.13;;
19967;SDS011;10145;49.152;9.282;2022-07-29T09:47:50;8.23;;;4.50;;
19967;SDS011;10145;49.152;9.282;2022-07-29T09:50:16;5.07;;;4.20;;
19967;SDS011;10145;49.152;9.282;2022-07-29T09:52:48;6.78;;;4.40;;
19967;SDS011;10145;49.152;9.282;2022-07-29T09:55:18;7.15;;;4.50;;
19967;SDS011;10145;49.152;9.282;2022-07-29T09:57:45;6.07;;;4.43;;
19967;SDS011;10145;49.152;9.282;2022-07-29T10:00:15;7.07;;;4.38;;
19967;SDS011;10145;49.152;9.282;2022-07-29T10:02:43;6.85;;;4.95;;
19967;SDS011;10145;49.152;9.282;2022-07-29T10:05:18;7.80;;;4.72;;
19967;SDS011;10145;49.152;9.282;2022-07-29T10:07:55;5.15;;;4.43;;
19967;SDS011;10145;49.152;9.282;2022-07-29T10:10:25;5.82;;;4.55;;
19967;SDS011;10145;49.152;9.282;2022-07-29T10:12:53;6.90;;;4.70;;
19967;SDS011;10145;49.152;9.282;2022-07-29T10:15:21;6.55;;;4.43;;
19967;SDS011;10145;49.152;9.282;2022-07-29T10:17:48;7.45;;;4.47;;
19967;SDS011;10145;49.152;9.282;2022-07-29T10:20:15;6.10;;;4.70;;
19967;SDS011;10145;49.152;9.282;2022-07-29T10:22:42;5.15;;;4.63;;
19967;SDS011;10145;49.152;9.282;2022-07-29T10:25:09;6.57;;;4.57;;
19967;SDS011;10145;49.152;9.282;2022-07-29T10:27:35;6.30;;;5.68;;
19967;SDS011;10145;49.152;9.282;2022-07-29T10:30:01;9.23;;;4.57;;
19967;SDS011;10145;49.152;9.282;2022-07-29T10:35:15;6.40;;;4.40;;
19967;SDS011;10145;49.152;9.282;2022-07-29T10:43:42;10.48;;;4.70;;
19967;SDS011;10145;49.152;9.282;2022-07-29T10:46:11;7.10;;;5.00;;
19967;SDS011;10145;49.152;9.282;2022-07-29T10:52:18;5.28;;;4.60;;
19967;SDS011;10145;49.152;9.282;2022-07-29T10:57:18;4.85;;;4.05;;
19967;SDS011;10145;49.152;9.282;2022-07-29T11:07:33;6.18;;;4.35;;
19967;SDS011;10145;49.152;9.282;2022-07-29T11:15:02;6.05;;;5.13;;
19967;SDS011;10145;49.152;9.282;2022-07-29T11:23:28;7.22;;;4.47;;
19967;SDS011;10145;49.152;9.282;2022-07-29T11:28:36;7.25;;;4.38;;
19967;SDS011;10145;49.152;9.282;2022-07-29T11:34:19;5.82;;;4.45;;
19967;SDS011;10145;49.152;9.282;2022-07-29T11:39:32;6.00;;;5.00;;
19967;SDS011;10145;49.152;9.282;2022-07-29T11:47:20;7.22;;;5.00;;
19967;SDS011;10145;49.152;9.282;2022-07-29T11:49:46;6.57;;;5.03;;
19967;SDS011;10145;49.152;9.282;2022-07-29T11:52:13;5.68;;;4.60;;
19967;SDS011;10145;49.152;9.282;2022-07-29T11:54:38;8.65;;;5.07;;
19967;SDS011;10145;49.152;9.282;2022-07-29T11:57:07;5.90;;;4.53;;
19967;SDS011;10145;49.152;9.282;2022-07-29T11:59:42;7.22;;;4.75;;
19967;SDS011;10145;49.152;9.282;2022-07-29T12:02:09;8.10;;;4.35;;
19967;SDS011;10145;49.152;9.282;2022-07-29T12:04:52;9.88;;;5.03;;
19967;SDS011;10145;49.152;9.282;2022-07-29T12:07:28;8.20;;;4.88;;
19967;SDS011;10145;49.152;9.282;2022-07-29T12:09:55;7.15;;;4.72;;
19967;SDS011;10145;49.152;9.282;2022-07-29T12:12:21;6.25;;;4.65;;
19967;SDS011;10145;49.152;9.282;2022-07-29T12:14:48;5.30;;;4.80;;
19967;SDS011;10145;49.152;9.282;2022-07-29T12:17:26;6.40;;;4.57;;
19967;SDS011;10145;49.152;9.282;2022-07-29T12:19:52;5.82;;;4.53;;
19967;SDS011;10145;49.152;9.282;2022-07-29T12:22:28;8.23;;;4.53;;
19967;SDS011;10145;49.152;9.282;2022-07-29T12:25:09;4.50;;;4.10;;
19967;SDS011;10145;49.152;9.282;2022-07-29T12:27:36;8.82;;;4.45;;
19967;SDS011;10145;49.152;9.282;2022-07-29T12:30:07;8.70;;;4.50;;
19967;SDS011;10145;49.152;9.282;2022-07-29T12:32:37;4.28;;;3.88;;
19967;SDS011;10145;49.152;9.282;2022-07-29T12:35:06;5.22;;;4.05;;
19967;SDS011;10145;49.152;9.282;2022-07-29T12:37:34;5.82;;;4.13;;
19967;SDS011;10145;49.152;9.282;2022-07-29T12:40:02;9.10;;;4.30;;
19967;SDS011;10145;49.152;9.282;2022-07-29T12:42:29;6.90;;;4.45;;
19967;SDS011;10145;49.152;9.282;2022-07-29T12:44:55;5.97;;;3.97;;
19967;SDS011;10145;49.152;9.282;2022-07-29T12:47:21;6.35;;;4.28;;
19967;SDS011;10145;49.152;9.282;2022-07-29T12:49:47;6.82;;;3.90;;
19967;SDS011;10145;49.152;9.282;2022-07-29T12:52:27;4.85;;;3.90;;
19967;SDS011;10145;49.152;9.282;2022-07-29T12:54:54;6.43;;;3.67;;
19967;SDS011;10145;49.152;9.282;2022-07-29T12:57:20;7.85;;;3.90;;
19967;SDS011;10145;49.152;9.282;2022-07-29T12:59:58;5.25;;;4.00;;
19967;SDS011;10145;49.152;9.282;2022-07-29T13:02:29;4.53;;;3.63;;
19967;SDS011;10145;49.152;9.282;2022-07-29T13:04:59;5.75;;;4.00;;
19967;SDS011;10145;49.152;9.282;2022-07-29T13:07:27;7.35;;;3.40;;
19967;SDS011;10145;49.152;9.282;2022-07-29T13:09:54;5.63;;;3.53;;
19967;SDS011;10145;49.152;9.282;2022-07-29T13:12:37;9.20;;;4.40;;
19967;SDS011;10145;49.152;9.282;2022-07-29T13:15:13;6.60;;;3.42;;
19967;SDS011;10145;49.152;9.282;2022-07-29T13:17:43;5.15;;;3.50;;
19967;SDS011;10145;49.152;9.282;2022-07-29T13:20:10;6.13;;;3.45;;
19967;SDS011;10145;49.152;9.282;2022-07-29T13:22:40;4.85;;;3.30;;
19967;SDS011;10145;49.152;9.282;2022-07-29T13:25:07;6.57;;;3.13;;
19967;SDS011;10145;49.152;9.282;2022-07-29T13:27:36;3.50;;;3.17;;
19967;SDS011;10145;49.152;9.282;2022-07-29T13:30:07;6.80;;;3.45;;
19967;SDS011;10145;49.152;9.282;2022-07-29T13:32:34;6.20;;;3.80;;
19967;SDS011;10145;49.152;9.282;2022-07-29T13:35:02;5.38;;;3.40;;
19967;SDS011;10145;49.152;9.282;2022-07-29T13:37:30;6.88;;;3.28;;
19967;SDS011;10145;49.152;9.282;2022-07-29T13:39:58;6.88;;;3.42;;
19967;SDS011;10145;49.152;9.282;2022-07-29T13:42:24;4.47;;;3.38;;
19967;SDS011;10145;49.152;9.282;2022-07-29T13:44:49;7.03;;;3.47;;
19967;SDS011;10145;49.152;9.282;2022-07-29T13:47:16;6.20;;;3.78;;
19967;SDS011;10145;49.152;9.282;2022-07-29T13:49:42;7.70;;;3.65;;
19967;SDS011;10145;49.152;9.282;2022-07-29T13:52:08;4.65;;;3.38;;
19967;SDS011;10145;49.152;9.282;2022-07-29T13:54:34;6.18;;;3.60;;
19967;SDS011;10145;49.152;9.282;2022-07-29T13:57:06;6.25;;;3.45;;
19967;SDS011;10145;49.152;9.282;2022-07-29T13:59:32;8.38;;;3.80;;
19967;SDS011;10145;49.152;9.282;2022-07-29T14:01:58;7.25;;;3.65;;
19967;SDS011;10145;49.152;9.282;2022-07-29T14:04:24;6.50;;;3.45;;
19967;SDS011;10145;49.152;9.282;2022-07-29T14:06:50;7.78;;;3.22;;
19967;SDS011;10145;49.152;9.282;2022-07-29T14:09:15;7.53;;;3.40;;
19967;SDS011;10145;49.152;9.282;2022-07-29T14:11:41;5.60;;;3.60;;
19967;SDS011;10145;49.152;9.282;2022-07-29T14:14:06;8.57;;;3.70;;
19967;SDS011;10145;49.152;9.282;2022-07-29T14:16:32;5.32;;;3.60;;
19967;SDS011;10145;49.152;9.282;2022-07-29T14:18:58;6.80;;;3.58;;
19967;SDS011;10145;49.152;9.282;2022-07-29T14:21:24;6.38;;;3.60;;
19967;SDS011;10145;49.152;9.282;2022-07-29T14:23:49;6.90;;;3.58;;
19967;SDS011;10145;49.152;9.282;2022-07-29T14:26:16;6.45;;;3.78;;
19967;SDS011;10145;49.152;9.282;2022-07-29T14:28:42;6.60;;;3.58;;
19967;SDS011;10145;49.152;9.282;2022-07-29T14:31:08;6.78;;;3.63;;
19967;SDS011;10145;49.152;9.282;2022-07-29T14:33:34;4.78;;;3.90;;
19967;SDS011;10145;49.152;9.282;2022-07-29T14:35:59;6.78;;;3.80;;
19967;SDS011;10145;49.152;9.282;2022-07-29T14:38:25;5.15;;;4.00;;
19967;SDS011;10145;49.152;9.282;2022-07-29T14:40:51;4.72;;;3.40;;
19967;SDS011;10145;49.152;9.282;2022-07-29T14:43:16;3.88;;;3.45;;
19967;SDS011;10145;49.152;9.282;2022-07-29T14:45:42;6.93;;;3.67;;
19967;SDS011;10145;49.152;9.282;2022-07-29T14:48:08;4.18;;;3.60;;
19967;SDS011;10145;49.152;9.282;2022-07-29T14:50:33;4.38;;;3.55;;
19967;SDS011;10145;49.152;9.282;2022-07-29T14:52:59;7.32;;;3.70;;
19967;SDS011;10145;49.152;9.282;2022-07-29T14:55:25;5.25;;;3.75;;
19967;SDS011;10145;49.152;9.282;2022-07-29T14:57:51;9.43;;;3.65;;
19967;SDS011;10145;49.152;9.282;2022-07-29T15:00:17;5.55;;;3.65;;
19967;SDS011;10145;49.152;9.282;2022-07-29T15:02:43;7.47;;;3.72;;
19967;SDS011;10145;49.152;9.282;2022-07-29T15:05:08;6.63;;;3.90;;
19967;SDS011;10145;49.152;9.282;2022-07-29T15:07:34;5.88;;;3.90;;
19967;SDS011;10145;49.152;9.282;2022-07-29T15:09:59;3.67;;;3.33;;
19967;SDS011;10145;49.152;9.282;2022-07-29T15:12:25;4.50;;;3.42;;
19967;SDS011;10145;49.152;9.282;2022-07-29T15:14:50;7.30;;;3.75;;
19967;SDS011;10145;49.152;9.282;2022-07-29T15:17:16;5.93;;;4.07;;
19967;SDS011;10145;49.152;9.282;2022-07-29T15:19:41;3.88;;;3.40;;
19967;SDS011;10145;49.152;9.282;2022-07-29T15:22:07;8.88;;;3.55;;
19967;SDS011;10145;49.152;9.282;2022-07-29T15:24:32;4.10;;;3.20;;
19967;SDS011;10145;49.152;9.282;2022-07-29T15:26:58;5.47;;;2.97;;
19967;SDS011;10145;49.152;9.282;2022-07-29T15:29:24;5.90;;;2.97;;
19967;SDS011;10145;49.152;9.282;2022-07-29T15:31:49;6.15;;;3.38;;
19967;SDS011;10145;49.152;9.282;2022-07-29T15:34:15;5.10;;;3.13;;
19967;SDS011;10145;49.152;9.282;2022-07-29T15:36:40;4.32;;;3.28;;
19967;SDS011;10145;49.152;9.282;2022-07-29T15:39:06;3.58;;;3.28;;
19967;SDS011;10145;49.152;9.282;2022-07-29T15:41:32;5.93;;;3.30;;
19967;SDS011;10145;49.152;9.282;2022-07-29T15:43:58;5.03;;;3.10;;
19967;SDS011;10145;49.152;9.282;2022-07-29T15:46:24;5.28;;;3.17;;
19967;SDS011;10145;49.152;9.282;2022-07-29T15:49:08;5.97;;;2.45;;
19967;SDS011;10145;49.152;9.282;2022-07-29T15:51:33;3.90;;;2.70;;
19967;SDS011;10145;49.152;9.282;2022-07-29T15:54:02;7.15;;;2.92;;
19967;SDS011;10145;49.152;9.282;2022-07-29T15:56:29;3.65;;;2.65;;
19967;SDS011;10145;49.152;9.282;2022-07-29T15:58:55;2.60;;;2.40;;
19967;SDS011;10145;49.152;9.282;2022-07-29T16:01:20;3.25;;;2.40;;
19967;SDS011;10145;49.152;9.282;2022-07-29T16:03:46;5.40;;;2.65;;
19967;SDS011;10145;49.152;9.282;2022-07-29T16:06:11;5.53;;;2.42;;
19967;SDS011;10145;49.152;9.282;2022-07-29T16:08:37;3.30;;;2.30;;
19967;SDS011;10145;49.152;9.282;2022-07-29T16:11:03;4.72;;;2.40;;
19967;SDS011;10145;49.152;9.282;2022-07-29T16:13:29;5.43;;;2.15;;
19967;SDS011;10145;49.152;9.282;2022-07-29T16:15:54;4.25;;;2.20;;
19967;SDS011;10145;49.152;9.282;2022-07-29T16:18:20;4.75;;;2.50;;
19967;SDS011;10145;49.152;9.282;2022-07-29T16:20:45;7.90;;;2.13;;
19967;SDS011;10145;49.152;9.282;2022-07-29T16:23:11;4.38;;;2.35;;
19967;SDS011;10145;49.152;9.282;2022-07-29T16:25:39;4.93;;;1.95;;
19967;SDS011;10145;49.152;9.282;2022-07-29T16:28:06;4.45;;;1.85;;
19967;SDS011;10145;49.152;9.282;2022-07-29T16:30:32;4.82;;;1.98;;
19967;SDS011;10145;49.152;9.282;2022-07-29T16:33:01;3.28;;;1.70;;
19967;SDS011;10145;49.152;9.282;2022-07-29T16:35:27;6.50;;;2.40;;
19967;SDS011;10145;49.152;9.282;2022-07-29T16:37:54;3.40;;;1.83;;
19967;SDS011;10145;49.152;9.282;2022-07-29T16:40:20;2.70;;;2.10;;
19967;SDS011;10145;49.152;9.282;2022-07-29T16:42:46;5.22;;;2.08;;
19967;SDS011;10145;49.152;9.282;2022-07-29T16:45:11;3.33;;;1.85;;
19967;SDS011;10145;49.152;9.282;2022-07-29T16:47:37;6.38;;;2.00;;
19967;SDS011;10145;49.152;9.282;2022-07-29T16:50:03;8.95;;;2.20;;
19967;SDS011;10145;49.152;9.282;2022-07-29T16:52:29;3.42;;;1.73;;
19967;SDS011;10145;49.152;9.282;2022-07-29T16:54:54;3.63;;;1.92;;
19967;SDS011;10145;49.152;9.282;2022-07-29T16:57:20;3.92;;;1.80;;
19967;SDS011;10145;49.152;9.282;2022-07-29T16:59:45;2.28;;;1.73;;
19967;SDS011;10145;49.152;9.282;2022-07-29T17:02:13;3.58;;;1.88;;
19967;SDS011;10145;49.152;9.282;2022-07-29T17:04:39;3.38;;;1.80;;
19967;SDS011;10145;49.152;9.282;2022-07-29T17:07:07;5.78;;;2.03;;
19967;SDS011;10145;49.152;9.282;2022-07-29T17:09:32;3.17;;;1.70;;
19967;SDS011;10145;49.152;9.282;2022-07-29T17:11:58;5.70;;;2.10;;
19967;SDS011;10145;49.152;9.282;2022-07-29T17:14:25;3.50;;;2.10;;
19967;SDS011;10145;49.152;9.282;2022-07-29T17:16:53;2.67;;;1.90;;
19967;SDS011;10145;49.152;9.282;2022-07-29T17:19:20;3.78;;;2.53;;
19967;SDS011;10145;49.152;9.282;2022-07-29T17:21:46;4.57;;;2.90;;
19967;SDS011;10145;49.152;9.282;2022-07-29T17:24:12;3.58;;;2.83;;
19967;SDS011;10145;49.152;9.282;2022-07-29T17:26:38;3.60;;;2.97;;
19967;SDS011;10145;49.152;9.282;2022-07-29T17:29:04;5.28;;;3.17;;
19967;SDS011;10145;49.152;9.282;2022-07-29T17:31:30;4.68;;;3.40;;
19967;SDS011;10145;49.152;9.282;2022-07-29T17:33:56;5.13;;;2.90;;
19967;SDS011;10145;49.152;9.282;2022-07-29T17:36:23;4.55;;;3.30;;
19967;SDS011;10145;49.152;9.282;2022-07-29T17:38:53;4.72;;;3.40;;
19967;SDS011;10145;49.152;9.282;2022-07-29T17:41:20;3.38;;;3.08;;
19967;SDS011;10145;49.152;9.282;2022-07-29T17:43:47;4.10;;;3.20;;
19967;SDS011;10145;49.152;9.282;2022-07-29T17:46:13;4.78;;;3.40;;
19967;SDS011;10145;49.152;9.282;2022-07-29T17:48:39;4.03;;;3.40;;
19967;SDS011;10145;49.152;9.282;2022-07-29T17:51:05;5.07;;;3.38;;
19967;SDS011;10145;49.152;9.282;2022-07-29T17:53:30;5.03;;;3.42;;
19967;SDS011;10145;49.152;9.282;2022-07-29T17:55:56;4.07;;;3.20;;
19967;SDS011;10145;49.152;9.282;2022-07-29T17:58:22;4.85;;;3.65;;
19967;SDS011;10145;49.152;9.282;2022-07-29T18:00:48;6.10;;;3.50;;
19967;SDS011;10145;49.152;9.282;2022-07-29T18:03:15;4.85;;;3.60;;
19967;SDS011;10145;49.152;9.282;2022-07-29T18:05:40;5.07;;;3.40;;
19967;SDS011;10145;49.152;9.282;2022-07-29T18:08:06;5.95;;;3.53;;
19967;SDS011;10145;49.152;9.282;2022-07-29T18:10:32;4.15;;;2.92;;
19967;SDS011;10145;49.152;9.282;2022-07-29T18:12:57;4.28;;;3.00;;
19967;SDS011;10145;49.152;9.282;2022-07-29T18:15:23;3.85;;;3.08;;
19967;SDS011;10145;49.152;9.282;2022-07-29T18:17:49;5.68;;;3.33;;
19967;SDS011;10145;49.152;9.282;2022-07-29T18:20:14;3.63;;;3.28;;
19967;SDS011;10145;49.152;9.282;2022-07-29T18:22:40;3.55;;;3.25;;
19967;SDS011;10145;49.152;9.282;2022-07-29T18:25:05;5.60;;;3.50;;
19967;SDS011;10145;49.152;9.282;2022-07-29T18:27:31;3.60;;;2.90;;
19967;SDS011;10145;49.152;9.282;2022-07-29T18:29:57;4.68;;;3.33;;
19967;SDS011;10145;49.152;9.282;2022-07-29T18:32:23;5.07;;;3.17;;
19967;SDS011;10145;49.152;9.282;2022-07-29T18:34:49;3.90;;;3.08;;
19967;SDS011;10145;49.152;9.282;2022-07-29T18:37:15;5.80;;;3.22;;
19967;SDS011;10145;49.152;9.282;2022-07-29T18:39:40;4.28;;;3.40;;
19967;SDS011;10145;49.152;9.282;2022-07-29T18:42:06;4.40;;;3.38;;
19967;SDS011;10145;49.152;9.282;2022-07-29T18:44:32;3.47;;;3.03;;
19967;SDS011;10145;49.152;9.282;2022-07-29T18:46:58;5.75;;;3.30;;
19967;SDS011;10145;49.152;9.282;2022-07-29T18:49:24;4.90;;;3.55;;
19967;SDS011;10145;49.152;9.282;2022-07-29T18:51:50;4.40;;;3.10;;
19967;SDS011;10145;49.152;9.282;2022-07-29T18:54:16;3.05;;;2.72;;
19967;SDS011;10145;49.152;9.282;2022-07-29T18:56:43;3.40;;;3.10;;
19967;SDS011;10145;49.152;9.282;2022-07-29T18:59:09;3.20;;;2.80;;
19967;SDS011;10145;49.152;9.282;2022-07-29T19:01:35;4.80;;;2.85;;
19967;SDS011;10145;49.152;9.282;2022-07-29T19:04:02;3.78;;;2.80;;
19967;SDS011;10145;49.152;9.282;2022-07-29T19:06:28;3.33;;;2.70;;
19967;SDS011;10145;49.152;9.282;2022-07-29T19:08:54;3.75;;;2.80;;
19967;SDS011;10145;49.152;9.282;2022-07-29T19:11:21;3.13;;;2.80;;
19967;SDS011;10145;49.152;9.282;2022-07-29T19:13:47;3.28;;;2.80;;
19967;SDS011;10145;49.152;9.282;2022-07-29T19:16:14;4.10;;;2.88;;
19967;SDS011;10145;49.152;9.282;2022-07-29T19:18:40;3.15;;;2.70;;
19967;SDS011;10145;49.152;9.282;2022-07-29T19:21:07;3.10;;;2.80;;
19967;SDS011;10145;49.152;9.282;2022-07-29T19:23:33;6.40;;;2.97;;
19967;SDS011;10145;49.152;9.282;2022-07-29T19:25:58;3.83;;;3.10;;
19967;SDS011;10145;49.152;9.282;2022-07-29T19:28:24;3.30;;;2.80;;
19967;SDS011;10145;49.152;9.282;2022-07-29T19:30:50;3.05;;;2.85;;
19967;SDS011;10145;49.152;9.282;2022-07-29T19:33:15;4.03;;;3.00;;